Time,TemperatureF,DewpointF,PressureIn,WindDirection,WindDirectionDegrees,WindSpeedMPH,WindSpeedGustMPH,Humidity,HourlyPrecipIn,Conditions,Clouds,dailyrainin,SoftwareType,DateUTC
2013-03-31 00:02:00,54.9,53.5,29.96,WNW,284,0.0,0.0,95,0.00,RA,RA,0.00,WeatherDisplay:10.37,2013-03-31 05:02:00,
2013-03-31 00:08:00,54.9,53.5,29.96,West,277,0.0,0.0,95,0.00,RA,RA,0.00,WeatherDisplay:10.37,2013-03-31 05:08:00,
2013-03-31 00:14:00,54.9,53.5,29.96,NW,310,0.0,0.0,95,0.00,BKN,BKN,0.00,WeatherDisplay:10.37,2013-03-31 05:14:00,
2013-03-31 00:20:00,54.9,53.5,29.96,NE,52,0.0,0.0,95,0.00,BKN,BKN,0.00,WeatherDisplay:10.37,2013-03-31 05:20:00,
2013-03-31 00:26:00,54.7,53.3,29.96,NE,47,0.0,0.0,95,0.00,BKN,BKN,0.00,WeatherDisplay:10.37,2013-03-31 05:26:00,
2013-03-31 00:32:00,54.7,53.3,29.96,NE,45,0.0,0.0,95,0.00,BKN,BKN,0.00,WeatherDisplay:10.37,2013-03-31 05:32:00,
2013-03-31 00:38:00,54.7,53.3,29.95,NE,43,1.0,3.0,95,0.00,BKN,BKN,0.00,WeatherDisplay:10.37,2013-03-31 05:38:00,
2013-03-31 00:44:00,54.8,53.4,29.95,NW,320,1.0,2.0,95,0.00,BKN,BKN,0.00,WeatherDisplay:10.37,2013-03-31 05:44:00,
2013-03-31 00:50:00,55.2,53.8,29.97,WNW,303,1.0,3.0,95,0.00,BKN,BKN,0.00,WeatherDisplay:10.37,2013-03-31 05:50:00,
2013-03-31 00:56:00,55.2,53.8,29.97,NW,314,3.0,4.0,95,0.00,BKN,BKN,0.00,WeatherDisplay:10.37,2013-03-31 05:56:00,
2013-03-31 01:02:00,55.8,54.1,29.97,NNW,335,6.0,9.0,94,0.00,OVC,OVC,0.00,WeatherDisplay:10.37,2013-03-31 06:02:00,
2013-03-31 01:08:00,56.3,54.0,29.97,NW,322,6.0,10.0,92,0.00,OVC,OVC,0.00,WeatherDisplay:10.37,2013-03-31 06:08:00,
2013-03-31 01:14:00,56.5,54.2,29.95,NW,321,8.0,14.0,92,0.00,OVC,OVC,0.00,WeatherDisplay:10.37,2013-03-31 06:14:00,
2013-03-31 01:20:00,56.3,53.1,29.95,NW,323,9.0,12.0,89,0.00,OVC,OVC,0.00,WeatherDisplay:10.37,2013-03-31 06:20:00,
2013-03-31 01:27:00,56.1,52.3,29.97,NW,313,12.0,18.0,87,0.00,OVC,OVC,0.00,WeatherDisplay:10.37,2013-03-31 06:27:00,
2013-03-31 01:32:00,55.9,51.5,29.97,North,350,12.0,18.0,85,0.00,OVC,OVC,0.00,WeatherDisplay:10.37,2013-03-31 06:32:00,
2013-03-31 01:38:00,55.8,50.4,29.99,NW,321,10.0,16.0,82,0.00,OVC,OVC,0.00,WeatherDisplay:10.37,2013-03-31 06:38:00,
2013-03-31 01:44:00,55.6,50.2,29.99,NW,311,8.0,16.0,82,0.00,OVC,OVC,0.00,WeatherDisplay:10.37,2013-03-31 06:44:00,
2013-03-31 01:50:00,55.3,48.9,30.02,NNW,331,8.0,16.0,79,0.00,OVC,OVC,0.00,WeatherDisplay:10.37,2013-03-31 06:50:00,
2013-03-31 01:56:00,54.8,47.7,30.02,NW,310,13.0,18.0,77,0.00,OVC,OVC,0.00,WeatherDisplay:10.37,2013-03-31 06:56:00,
2013-03-31 02:02:00,53.8,47.7,30.04,NW,316,12.0,18.0,80,0.00,OVC,OVC,0.00,WeatherDisplay:10.37,2013-03-31 07:02:00,
2013-03-31 02:08:00,52.9,48.5,30.04,NNW,337,12.0,15.0,85,0.00,OVC,OVC,0.00,WeatherDisplay:10.37,2013-03-31 07:08:00,
2013-03-31 02:14:00,52.3,48.6,30.04,North,351,12.0,17.0,87,0.00,OVC,OVC,0.00,WeatherDisplay:10.37,2013-03-31 07:14:00,
2013-03-31 02:20:00,52.0,48.9,30.04,NW,326,15.0,26.0,89,0.00,OVC,OVC,0.00,WeatherDisplay:10.37,2013-03-31 07:20:00,
2013-03-31 02:26:00,51.4,49.2,30.05,NW,323,12.0,15.0,92,0.01,RA,RA,0.01,WeatherDisplay:10.37,2013-03-31 07:26:00,
2013-03-31 02:32:00,51.3,49.3,30.05,NNW,332,9.0,12.0,93,0.00,RA,RA,0.01,WeatherDisplay:10.37,2013-03-31 07:32:00,
2013-03-31 02:38:00,50.9,49.3,30.04,NNE,15,3.0,7.0,94,0.00,OVC,OVC,0.01,WeatherDisplay:10.37,2013-03-31 07:38:00,
2013-03-31 02:44:00,50.9,49.5,30.04,NNW,331,5.0,7.0,95,0.01,RA,RA,0.02,WeatherDisplay:10.37,2013-03-31 07:44:00,
2013-03-31 02:50:00,50.7,49.3,30.04,NNW,328,1.0,4.0,95,0.00,RA,RA,0.03,WeatherDisplay:10.37,2013-03-31 07:50:00,
2013-03-31 02:56:00,50.5,49.1,30.04,ENE,75,2.0,4.0,95,0.00,RA,RA,0.03,WeatherDisplay:10.37,2013-03-31 07:56:00,
2013-03-31 03:02:00,50.4,49.3,30.03,NNW,346,5.0,7.0,96,0.00,OVC,OVC,0.03,WeatherDisplay:10.37,2013-03-31 08:02:00,
2013-03-31 03:08:00,50.4,49.3,30.03,NW,316,5.0,9.0,96,0.00,OVC,OVC,0.03,WeatherDisplay:10.37,2013-03-31 08:08:00,
2013-03-31 03:14:00,50.2,49.1,30.03,NW,312,7.0,9.0,96,0.00,OVC,OVC,0.03,WeatherDisplay:10.37,2013-03-31 08:14:00,
2013-03-31 03:20:00,50.2,49.1,30.03,WNW,301,8.0,14.0,96,0.00,OVC,OVC,0.03,WeatherDisplay:10.37,2013-03-31 08:20:00,
2013-03-31 03:26:00,50.0,48.9,30.05,NW,307,7.0,9.0,96,0.00,OVC,OVC,0.03,WeatherDisplay:10.37,2013-03-31 08:26:00,
2013-03-31 03:32:00,50.0,48.9,30.05,NW,324,5.0,7.0,96,0.00,OVC,OVC,0.03,WeatherDisplay:10.37,2013-03-31 08:32:00,
2013-03-31 03:38:00,50.0,48.9,30.04,WNW,290,3.0,7.0,96,0.00,OVC,OVC,0.03,WeatherDisplay:10.37,2013-03-31 08:38:00,
2013-03-31 03:44:00,49.8,48.7,30.04,West,275,1.0,4.0,96,0.00,OVC,OVC,0.03,WeatherDisplay:10.37,2013-03-31 08:44:00,
2013-03-31 03:50:00,49.8,48.7,30.04,South,179,0.0,0.0,96,0.00,OVC,OVC,0.03,WeatherDisplay:10.37,2013-03-31 08:50:00,
2013-03-31 03:56:00,49.5,48.5,30.04,SSW,213,1.0,4.0,96,0.00,OVC,OVC,0.03,WeatherDisplay:10.37,2013-03-31 08:56:00,
2013-03-31 04:02:00,49.3,48.2,30.03,WNW,302,1.0,3.0,96,0.00,SCT,SCT,0.03,WeatherDisplay:10.37,2013-03-31 09:02:00,
2013-03-31 04:08:00,49.3,48.2,30.03,WNW,296,0.0,0.0,96,0.00,SCT,SCT,0.03,WeatherDisplay:10.37,2013-03-31 09:08:00,
2013-03-31 04:14:00,48.9,47.8,30.02,ENE,70,0.0,0.0,96,0.00,SCT,SCT,0.03,WeatherDisplay:10.37,2013-03-31 09:14:00,
2013-03-31 04:20:00,48.7,48.2,30.02,NW,304,0.0,0.0,98,0.00,SCT,SCT,0.03,WeatherDisplay:10.37,2013-03-31 09:20:00,
2013-03-31 04:26:00,48.4,47.9,30.02,NNW,335,1.0,2.0,98,0.00,SCT,SCT,0.03,WeatherDisplay:10.37,2013-03-31 09:26:00,
2013-03-31 04:32:00,48.2,47.7,30.02,North,352,0.0,0.0,98,0.00,SCT,SCT,0.03,WeatherDisplay:10.37,2013-03-31 09:32:00,
2013-03-31 04:38:00,48.0,47.5,30.02,NNW,333,0.0,0.0,98,0.00,SCT,SCT,0.03,WeatherDisplay:10.37,2013-03-31 09:38:00,
2013-03-31 04:44:00,47.8,47.3,30.02,NW,319,1.0,3.0,98,0.00,SCT,SCT,0.03,WeatherDisplay:10.37,2013-03-31 09:44:00,
2013-03-31 04:50:00,47.5,47.0,30.01,NW,305,2.0,3.0,98,0.00,SCT,SCT,0.03,WeatherDisplay:10.37,2013-03-31 09:50:00,
2013-03-31 04:56:00,47.7,47.4,30.01,WNW,284,1.0,4.0,99,0.00,SCT,SCT,0.03,WeatherDisplay:10.37,2013-03-31 09:56:00,
2013-03-31 05:02:00,47.7,47.4,30.02,WNW,287,0.0,3.0,99,0.00,SCT,SCT,0.03,WeatherDisplay:10.37,2013-03-31 10:02:00,
2013-03-31 05:08:00,47.5,47.2,30.02,WNW,284,0.0,0.0,99,0.00,SCT,SCT,0.03,WeatherDisplay:10.37,2013-03-31 10:08:00,
2013-03-31 05:14:00,47.1,46.8,30.02,WNW,283,0.0,0.0,99,0.00,SCT,SCT,0.03,WeatherDisplay:10.37,2013-03-31 10:14:00,
2013-03-31 05:20:00,46.9,46.6,30.02,West,275,0.0,0.0,99,0.00,SCT,SCT,0.03,WeatherDisplay:10.37,2013-03-31 10:20:00,
2013-03-31 05:26:00,46.6,46.3,30.02,WNW,287,2.0,3.0,99,0.00,SCT,SCT,0.03,WeatherDisplay:10.37,2013-03-31 10:26:00,
2013-03-31 05:32:00,46.6,46.3,30.02,WNW,300,2.0,3.0,99,0.00,SCT,SCT,0.03,WeatherDisplay:10.37,2013-03-31 10:32:00,
2013-03-31 05:38:00,46.4,46.1,30.02,WNW,296,2.0,4.0,99,0.00,SCT,SCT,0.03,WeatherDisplay:10.37,2013-03-31 10:38:00,
2013-03-31 05:44:00,46.0,45.7,30.02,WNW,292,0.0,2.0,99,0.00,SCT,SCT,0.03,WeatherDisplay:10.37,2013-03-31 10:44:00,
2013-03-31 05:50:00,46.0,45.7,30.02,WNW,284,0.0,0.0,99,0.00,SCT,SCT,0.03,WeatherDisplay:10.37,2013-03-31 10:50:00,
2013-03-31 05:56:00,45.9,45.9,30.02,WNW,290,1.0,3.0,100,0.00,SCT,SCT,0.03,WeatherDisplay:10.37,2013-03-31 10:56:00,
2013-03-31 06:02:00,45.4,45.4,30.02,WNW,294,1.0,3.0,100,0.00,BKN,BKN,0.03,WeatherDisplay:10.37,2013-03-31 11:02:00,
2013-03-31 06:08:00,45.6,45.6,30.02,WNW,286,3.0,4.0,100,0.00,BKN,BKN,0.03,WeatherDisplay:10.37,2013-03-31 11:08:00,
2013-03-31 06:14:00,45.7,45.7,30.03,WNW,292,3.0,5.0,100,0.00,BKN,BKN,0.03,WeatherDisplay:10.37,2013-03-31 11:14:00,
2013-03-31 06:20:00,45.7,45.7,30.03,WNW,295,6.0,7.0,100,0.00,BKN,BKN,0.03,WeatherDisplay:10.37,2013-03-31 11:20:00,
2013-03-31 06:26:00,45.9,45.9,30.03,WNW,288,2.0,4.0,100,0.00,BKN,BKN,0.03,WeatherDisplay:10.37,2013-03-31 11:26:00,
2013-03-31 06:32:00,45.7,45.7,30.03,WNW,296,5.0,6.0,100,0.00,BKN,BKN,0.03,WeatherDisplay:10.37,2013-03-31 11:32:00,
2013-03-31 06:38:00,45.5,45.5,30.03,WNW,295,6.0,7.0,100,0.00,BKN,BKN,0.03,WeatherDisplay:10.37,2013-03-31 11:38:00,
2013-03-31 06:44:00,45.5,45.5,30.03,WNW,295,5.0,6.0,100,0.00,BKN,BKN,0.03,WeatherDisplay:10.37,2013-03-31 11:44:00,
2013-03-31 06:50:00,45.3,45.3,30.04,WNW,293,1.0,5.0,100,0.00,BKN,BKN,0.03,WeatherDisplay:10.37,2013-03-31 11:50:00,
2013-03-31 06:57:00,45.0,45.0,30.04,WNW,289,3.0,4.0,100,0.00,BKN,BKN,0.03,WeatherDisplay:10.37,2013-03-31 11:57:00,
2013-03-31 07:02:00,44.8,44.8,30.04,WNW,289,3.0,6.0,100,0.00,FEW,FEW,0.03,WeatherDisplay:10.37,2013-03-31 12:02:00,
2013-03-31 07:08:00,44.6,44.6,30.04,WNW,288,3.0,4.0,100,0.00,FEW,FEW,0.03,WeatherDisplay:10.37,2013-03-31 12:08:00,
2013-03-31 07:14:00,44.4,44.4,30.04,NW,304,3.0,7.0,100,0.00,FEW,FEW,0.03,WeatherDisplay:10.37,2013-03-31 12:14:00,
2013-03-31 07:20:00,44.2,44.2,30.04,WNW,303,3.0,4.0,100,0.00,FEW,FEW,0.03,WeatherDisplay:10.37,2013-03-31 12:20:00,
2013-03-31 07:26:00,44.2,44.2,30.04,WNW,295,0.0,3.0,100,0.00,FEW,FEW,0.03,WeatherDisplay:10.37,2013-03-31 12:26:00,
2013-03-31 07:32:00,44.4,44.4,30.04,WNW,283,2.0,3.0,100,0.00,FEW,FEW,0.03,WeatherDisplay:10.37,2013-03-31 12:32:00,
2013-03-31 07:38:00,44.6,44.6,30.04,WNW,286,3.0,5.0,100,0.00,FEW,FEW,0.03,WeatherDisplay:10.37,2013-03-31 12:38:00,
2013-03-31 07:44:00,45.0,45.0,30.04,WNW,293,3.0,4.0,100,0.00,FEW,FEW,0.03,WeatherDisplay:10.37,2013-03-31 12:44:00,
2013-03-31 07:50:00,45.3,45.3,30.04,WNW,300,2.0,5.0,100,0.00,FEW,FEW,0.03,WeatherDisplay:10.37,2013-03-31 12:50:00,
2013-03-31 07:56:00,45.9,45.9,30.04,WNW,288,3.0,7.0,100,0.00,FEW,FEW,0.03,WeatherDisplay:10.37,2013-03-31 12:56:00,
2013-03-31 08:02:00,46.0,46.0,30.04,WNW,289,5.0,6.0,100,0.00,FEW,FEW,0.03,WeatherDisplay:10.37,2013-03-31 13:02:00,
2013-03-31 08:08:00,46.6,46.6,30.04,WNW,301,5.0,8.0,100,0.00,FEW,FEW,0.03,WeatherDisplay:10.37,2013-03-31 13:08:00,
2013-03-31 08:14:00,46.9,46.6,30.04,WNW,295,6.0,8.0,99,0.00,FEW,FEW,0.03,WeatherDisplay:10.37,2013-03-31 13:14:00,
2013-03-31 08:20:00,47.3,47.0,30.04,WNW,283,3.0,7.0,99,0.00,FEW,FEW,0.03,WeatherDisplay:10.37,2013-03-31 13:20:00,
2013-03-31 08:27:00,47.3,47.0,30.05,WNW,297,5.0,9.0,99,0.00,FEW,FEW,0.03,WeatherDisplay:10.37,2013-03-31 13:27:00,
2013-03-31 08:32:00,47.6,47.1,30.05,WNW,300,7.0,9.0,98,0.00,FEW,FEW,0.03,WeatherDisplay:10.37,2013-03-31 13:32:00,
2013-03-31 08:38:00,47.7,47.2,30.05,NW,312,7.0,10.0,98,0.00,FEW,FEW,0.03,WeatherDisplay:10.37,2013-03-31 13:38:00,
2013-03-31 08:44:00,48.0,47.5,30.05,NW,307,5.0,8.0,98,0.00,FEW,FEW,0.03,WeatherDisplay:10.37,2013-03-31 13:44:00,
2013-03-31 08:50:00,48.3,47.7,30.05,NW,309,5.0,9.0,98,0.00,FEW,FEW,0.03,WeatherDisplay:10.37,2013-03-31 13:50:00,
2013-03-31 08:56:00,48.7,47.6,30.05,NW,314,8.0,10.0,96,0.00,FEW,FEW,0.03,WeatherDisplay:10.37,2013-03-31 13:56:00,
2013-03-31 09:02:00,48.9,47.5,30.05,NW,304,10.0,15.0,95,0.00,FEW,FEW,0.03,WeatherDisplay:10.37,2013-03-31 14:02:00,
2013-03-31 09:08:00,48.9,47.5,30.05,WNW,298,7.0,9.0,95,0.00,FEW,FEW,0.03,WeatherDisplay:10.37,2013-03-31 14:08:00,
2013-03-31 09:14:00,49.5,47.6,30.05,WNW,291,9.0,13.0,93,0.00,FEW,FEW,0.03,WeatherDisplay:10.37,2013-03-31 14:14:00,
2013-03-31 09:20:00,49.8,47.9,30.05,WNW,293,7.0,8.0,93,0.00,FEW,FEW,0.03,WeatherDisplay:10.37,2013-03-31 14:20:00,
2013-03-31 09:26:00,50.3,47.7,30.06,NW,308,9.0,12.0,91,0.00,FEW,FEW,0.03,WeatherDisplay:10.37,2013-03-31 14:26:00,
2013-03-31 09:32:00,50.9,47.2,30.06,NW,313,6.0,9.0,87,0.00,FEW,FEW,0.03,WeatherDisplay:10.37,2013-03-31 14:32:00,
2013-03-31 09:38:00,51.4,47.1,30.06,WNW,296,12.0,15.0,85,0.00,FEW,FEW,0.03,WeatherDisplay:10.37,2013-03-31 14:38:00,
2013-03-31 09:44:00,51.6,46.9,30.06,West,279,9.0,12.0,84,0.00,FEW,FEW,0.03,WeatherDisplay:10.37,2013-03-31 14:44:00,
2013-03-31 09:50:00,51.8,47.1,30.06,WNW,298,12.0,15.0,84,0.00,FEW,FEW,0.03,WeatherDisplay:10.37,2013-03-31 14:50:00,
2013-03-31 09:57:00,52.0,46.3,30.06,WNW,297,12.0,15.0,81,0.00,FEW,FEW,0.03,WeatherDisplay:10.37,2013-03-31 14:57:00,
2013-03-31 10:02:00,52.2,46.9,30.06,WNW,297,9.0,14.0,82,0.00,FEW,FEW,0.03,WeatherDisplay:10.37,2013-03-31 15:02:00,
2013-03-31 10:08:00,52.9,47.2,30.06,WNW,296,7.0,12.0,81,0.00,FEW,FEW,0.03,WeatherDisplay:10.37,2013-03-31 15:08:00,
2013-03-31 10:14:00,52.3,46.6,30.06,WNW,302,9.0,14.0,81,0.00,FEW,FEW,0.03,WeatherDisplay:10.37,2013-03-31 15:14:00,
2013-03-31 10:20:00,52.4,47.0,30.06,NW,312,6.0,10.0,82,0.00,FEW,FEW,0.03,WeatherDisplay:10.37,2013-03-31 15:20:00,
2013-03-31 10:26:00,53.0,47.3,30.06,NW,309,6.0,12.0,81,0.00,FEW,FEW,0.03,WeatherDisplay:10.37,2013-03-31 15:26:00,
2013-03-31 10:32:00,53.2,47.2,30.06,NW,314,6.0,9.0,80,0.00,FEW,FEW,0.03,WeatherDisplay:10.37,2013-03-31 15:32:00,
2013-03-31 10:38:00,53.6,47.6,30.06,NW,316,13.0,21.0,80,0.00,FEW,FEW,0.03,WeatherDisplay:10.37,2013-03-31 15:38:00,
2013-03-31 10:44:00,54.1,47.7,30.06,WNW,300,7.0,9.0,79,0.00,FEW,FEW,0.03,WeatherDisplay:10.37,2013-03-31 15:44:00,
2013-03-31 10:50:00,54.8,48.4,30.06,WNW,299,6.0,9.0,79,0.00,FEW,FEW,0.03,WeatherDisplay:10.37,2013-03-31 15:50:00,
2013-03-31 10:56:00,54.8,47.7,30.06,WNW,289,13.0,15.0,77,0.00,FEW,FEW,0.03,WeatherDisplay:10.37,2013-03-31 15:56:00,
2013-03-31 11:02:00,54.9,47.5,30.05,West,280,8.0,9.0,76,0.00,FEW,FEW,0.03,WeatherDisplay:10.37,2013-03-31 16:02:00,
2013-03-31 11:08:00,55.5,48.5,30.05,WNW,298,8.0,12.0,77,0.00,FEW,FEW,0.03,WeatherDisplay:10.37,2013-03-31 16:08:00,
2013-03-31 11:14:00,55.7,48.6,30.05,NW,306,6.0,12.0,77,0.00,FEW,FEW,0.03,WeatherDisplay:10.37,2013-03-31 16:14:00,
2013-03-31 11:20:00,56.5,48.3,30.05,WNW,300,10.0,12.0,74,0.00,FEW,FEW,0.03,WeatherDisplay:10.37,2013-03-31 16:20:00,
2013-03-31 11:26:00,57.2,48.7,30.05,WNW,298,10.0,15.0,73,0.00,FEW,FEW,0.03,WeatherDisplay:10.37,2013-03-31 16:26:00,
2013-03-31 11:32:00,57.0,48.0,30.05,WNW,298,6.0,16.0,72,0.00,FEW,FEW,0.03,WeatherDisplay:10.37,2013-03-31 16:32:00,
2013-03-31 11:39:00,57.9,48.2,30.05,NW,305,10.0,12.0,70,0.00,FEW,FEW,0.03,WeatherDisplay:10.37,2013-03-31 16:39:00,
2013-03-31 11:45:00,58.7,48.2,30.05,NW,315,13.0,16.0,68,0.00,FEW,FEW,0.03,WeatherDisplay:10.37,2013-03-31 16:45:00,
2013-03-31 11:51:00,58.7,48.5,30.05,WNW,294,12.0,14.0,69,0.00,FEW,FEW,0.03,WeatherDisplay:10.37,2013-03-31 16:51:00,
2013-03-31 11:57:00,59.0,48.1,30.05,WNW,284,6.0,13.0,67,0.00,FEW,FEW,0.03,WeatherDisplay:10.37,2013-03-31 16:57:00,
2013-03-31 12:03:00,59.5,48.1,30.05,WNW,294,9.0,12.0,66,0.00,FEW,FEW,0.03,WeatherDisplay:10.37,2013-03-31 17:03:00,
2013-03-31 12:09:00,59.5,48.1,30.05,WNW,295,10.0,10.0,66,0.00,FEW,FEW,0.03,WeatherDisplay:10.37,2013-03-31 17:09:00,
2013-03-31 12:15:00,59.5,48.1,30.05,WNW,292,10.0,10.0,66,0.00,FEW,FEW,0.03,WeatherDisplay:10.37,2013-03-31 17:15:00,
2013-03-31 12:21:00,59.5,48.1,30.05,WNW,292,10.0,10.0,66,0.00,FEW,FEW,0.03,WeatherDisplay:10.37,2013-03-31 17:21:00,
2013-03-31 12:27:00,61.2,47.6,30.05,WNW,297,15.0,18.0,61,0.00,FEW,FEW,0.03,WeatherDisplay:10.37,2013-03-31 17:27:00,
2013-03-31 12:33:00,61.3,47.3,30.05,WNW,295,13.0,14.0,60,0.00,FEW,FEW,0.03,WeatherDisplay:10.37,2013-03-31 17:33:00,
2013-03-31 12:39:00,62.4,47.4,30.05,WNW,303,6.0,12.0,58,0.00,FEW,FEW,0.03,WeatherDisplay:10.37,2013-03-31 17:39:00,
2013-03-31 12:45:00,62.5,47.9,30.05,WNW,302,6.0,16.0,59,0.00,FEW,FEW,0.03,WeatherDisplay:10.37,2013-03-31 17:45:00,
2013-03-31 12:51:00,62.9,47.0,30.05,WNW,293,10.0,14.0,56,0.00,FEW,FEW,0.03,WeatherDisplay:10.37,2013-03-31 17:51:00,
2013-03-31 12:57:00,62.6,47.6,30.05,NW,308,5.0,10.0,58,0.00,FEW,FEW,0.03,WeatherDisplay:10.37,2013-03-31 17:57:00,
2013-03-31 13:03:00,63.9,47.9,30.05,NW,319,12.0,14.0,56,0.00,FEW,FEW,0.03,WeatherDisplay:10.37,2013-03-31 18:03:00,
2013-03-31 13:09:00,63.8,46.8,30.05,WNW,290,15.0,18.0,54,0.00,FEW,FEW,0.03,WeatherDisplay:10.37,2013-03-31 18:09:00,
2013-03-31 13:15:00,63.6,46.6,30.05,WNW,288,9.0,13.0,54,0.00,FEW,FEW,0.03,WeatherDisplay:10.37,2013-03-31 18:15:00,
2013-03-31 13:21:00,65.3,48.2,30.05,NW,309,5.0,8.0,54,0.00,FEW,FEW,0.03,WeatherDisplay:10.37,2013-03-31 18:21:00,
2013-03-31 13:27:00,64.6,46.6,30.05,WNW,300,6.0,9.0,52,0.00,FEW,FEW,0.03,WeatherDisplay:10.37,2013-03-31 18:27:00,
2013-03-31 13:33:00,65.4,46.8,30.05,NW,315,8.0,13.0,51,0.00,FEW,FEW,0.03,WeatherDisplay:10.37,2013-03-31 18:33:00,
2013-03-31 13:39:00,65.9,46.7,30.05,NW,312,7.0,12.0,50,0.00,FEW,FEW,0.03,WeatherDisplay:10.37,2013-03-31 18:39:00,
2013-03-31 13:45:00,64.9,44.8,30.05,WNW,292,12.0,14.0,48,0.00,FEW,FEW,0.03,WeatherDisplay:10.37,2013-03-31 18:45:00,
2013-03-31 13:51:00,65.5,44.1,30.04,NW,307,7.0,14.0,46,0.00,FEW,FEW,0.03,WeatherDisplay:10.37,2013-03-31 18:51:00,
2013-03-31 13:57:00,65.7,40.7,30.04,NW,318,9.0,12.0,40,0.00,FEW,FEW,0.03,WeatherDisplay:10.37,2013-03-31 18:57:00,
2013-03-31 14:03:00,64.8,41.2,30.04,WNW,295,12.0,14.0,42,0.00,SCT,SCT,0.03,WeatherDisplay:10.37,2013-03-31 19:03:00,
2013-03-31 14:09:00,65.0,41.3,30.04,NW,320,10.0,13.0,42,0.00,SCT,SCT,0.03,WeatherDisplay:10.37,2013-03-31 19:09:00,
2013-03-31 14:15:00,65.8,43.3,30.04,NW,314,9.0,15.0,44,0.00,SCT,SCT,0.03,WeatherDisplay:10.37,2013-03-31 19:15:00,
2013-03-31 14:21:00,66.5,42.7,30.04,WNW,290,7.0,13.0,42,0.00,SCT,SCT,0.03,WeatherDisplay:10.37,2013-03-31 19:21:00,
2013-03-31 14:27:00,65.8,40.8,30.03,WNW,292,9.0,14.0,40,0.00,SCT,SCT,0.03,WeatherDisplay:10.37,2013-03-31 19:27:00,
2013-03-31 14:33:00,65.8,41.5,30.03,WNW,300,14.0,26.0,41,0.00,SCT,SCT,0.03,WeatherDisplay:10.37,2013-03-31 19:33:00,
2013-03-31 14:39:00,66.9,41.1,30.03,WNW,298,10.0,14.0,39,0.00,SCT,SCT,0.03,WeatherDisplay:10.37,2013-03-31 19:39:00,
2013-03-31 14:45:00,66.1,40.4,30.03,WNW,284,8.0,14.0,39,0.00,SCT,SCT,0.03,WeatherDisplay:10.37,2013-03-31 19:45:00,
2013-03-31 14:51:00,65.6,40.0,30.03,WNW,283,12.0,14.0,39,0.00,SCT,SCT,0.03,WeatherDisplay:10.37,2013-03-31 19:51:00,
2013-03-31 14:57:00,65.8,40.1,30.03,WNW,290,9.0,12.0,39,0.00,SCT,SCT,0.03,WeatherDisplay:10.37,2013-03-31 19:57:00,
2013-03-31 15:03:00,67.0,40.5,30.02,NW,315,10.0,13.0,38,0.00,FEW,FEW,0.03,WeatherDisplay:10.37,2013-03-31 20:03:00,
2013-03-31 15:09:00,67.3,40.8,30.02,West,273,5.0,12.0,38,0.00,FEW,FEW,0.03,WeatherDisplay:10.37,2013-03-31 20:09:00,
2013-03-31 15:15:00,66.5,40.1,30.02,West,277,9.0,14.0,38,0.00,FEW,FEW,0.03,WeatherDisplay:10.37,2013-03-31 20:15:00,
2013-03-31 15:21:00,67.7,39.0,30.02,WNW,288,7.0,9.0,35,0.00,FEW,FEW,0.03,WeatherDisplay:10.37,2013-03-31 20:21:00,
2013-03-31 15:27:00,66.6,40.9,30.02,WNW,303,10.0,21.0,39,0.00,FEW,FEW,0.03,WeatherDisplay:10.37,2013-03-31 20:27:00,
2013-03-31 15:33:00,67.7,40.5,30.02,NW,313,9.0,13.0,37,0.00,FEW,FEW,0.03,WeatherDisplay:10.37,2013-03-31 20:33:00,
2013-03-31 15:39:00,66.6,39.5,30.01,WNW,298,12.0,21.0,37,0.00,FEW,FEW,0.03,WeatherDisplay:10.37,2013-03-31 20:39:00,
2013-03-31 15:45:00,66.8,40.3,30.01,WNW,293,10.0,12.0,38,0.00,FEW,FEW,0.03,WeatherDisplay:10.37,2013-03-31 20:45:00,
2013-03-31 15:51:00,67.2,40.7,30.00,WNW,295,12.0,16.0,38,0.00,FEW,FEW,0.03,WeatherDisplay:10.37,2013-03-31 20:51:00,
2013-03-31 15:57:00,68.5,39.7,30.00,WNW,282,7.0,9.0,35,0.00,FEW,FEW,0.03,WeatherDisplay:10.37,2013-03-31 20:57:00,
2013-03-31 16:03:00,68.4,40.4,30.00,WNW,293,6.0,8.0,36,0.00,FEW,FEW,0.03,WeatherDisplay:10.37,2013-03-31 21:03:00,
2013-03-31 16:09:00,67.2,38.6,30.00,WNW,293,8.0,16.0,35,0.00,FEW,FEW,0.03,WeatherDisplay:10.37,2013-03-31 21:09:00,
2013-03-31 16:15:00,66.6,38.8,30.00,WNW,298,12.0,18.0,36,0.00,FEW,FEW,0.03,WeatherDisplay:10.37,2013-03-31 21:15:00,
2013-03-31 16:21:00,69.0,40.2,30.00,NW,306,7.0,10.0,35,0.00,FEW,FEW,0.03,WeatherDisplay:10.37,2013-03-31 21:21:00,
2013-03-31 16:27:00,68.4,40.4,29.99,NW,304,9.0,14.0,36,0.00,FEW,FEW,0.03,WeatherDisplay:10.37,2013-03-31 21:27:00,
2013-03-31 16:33:00,68.4,39.7,29.99,NW,320,7.0,12.0,35,0.00,FEW,FEW,0.03,WeatherDisplay:10.37,2013-03-31 21:33:00,
2013-03-31 16:39:00,68.5,39.0,29.99,NNW,342,7.0,14.0,34,0.00,FEW,FEW,0.03,WeatherDisplay:10.37,2013-03-31 21:39:00,
2013-03-31 16:45:00,68.3,38.8,29.99,NW,312,7.0,12.0,34,0.00,FEW,FEW,0.03,WeatherDisplay:10.37,2013-03-31 21:45:00,
2013-03-31 16:51:00,68.0,38.6,29.98,WNW,296,6.0,12.0,34,0.00,FEW,FEW,0.03,WeatherDisplay:10.37,2013-03-31 21:51:00,
2013-03-31 16:57:00,67.4,38.0,29.98,WNW,297,12.0,15.0,34,0.00,FEW,FEW,0.03,WeatherDisplay:10.37,2013-03-31 21:57:00,
2013-03-31 17:03:00,67.5,38.2,29.98,NW,304,7.0,10.0,34,0.00,FEW,FEW,0.03,WeatherDisplay:10.37,2013-03-31 22:03:00,
2013-03-31 17:09:00,68.4,38.9,29.98,NNW,329,8.0,10.0,34,0.00,FEW,FEW,0.03,WeatherDisplay:10.37,2013-03-31 22:09:00,
2013-03-31 17:15:00,67.9,37.7,29.98,NW,308,9.0,16.0,33,0.00,FEW,FEW,0.03,WeatherDisplay:10.37,2013-03-31 22:15:00,
2013-03-31 17:21:00,67.7,38.3,29.98,NW,312,3.0,10.0,34,0.00,FEW,FEW,0.03,WeatherDisplay:10.37,2013-03-31 22:21:00,
2013-03-31 17:27:00,68.5,39.0,29.97,NW,318,5.0,7.0,34,0.00,FEW,FEW,0.03,WeatherDisplay:10.37,2013-03-31 22:27:00,
2013-03-31 17:33:00,67.7,37.6,29.97,NNW,338,7.0,8.0,33,0.00,FEW,FEW,0.03,WeatherDisplay:10.37,2013-03-31 22:33:00,
2013-03-31 17:39:00,67.8,38.4,29.96,NNW,348,7.0,9.0,34,0.00,FEW,FEW,0.03,WeatherDisplay:10.37,2013-03-31 22:39:00,
2013-03-31 17:45:00,66.6,38.1,29.96,NNE,27,5.0,6.0,35,0.00,FEW,FEW,0.03,WeatherDisplay:10.37,2013-03-31 22:45:00,
2013-03-31 17:51:00,68.0,39.3,29.97,East,91,1.0,7.0,35,0.00,FEW,FEW,0.03,WeatherDisplay:10.37,2013-03-31 22:51:00,
2013-03-31 17:57:00,67.6,39.0,29.97,NW,320,7.0,9.0,35,0.00,FEW,FEW,0.03,WeatherDisplay:10.37,2013-03-31 22:57:00,
2013-03-31 18:03:00,67.5,38.2,29.96,NW,320,5.0,8.0,34,0.00,CLR,CLR,0.03,WeatherDisplay:10.37,2013-03-31 23:03:00,
2013-03-31 18:09:00,68.0,38.5,29.96,WNW,296,6.0,9.0,34,0.00,CLR,CLR,0.03,WeatherDisplay:10.37,2013-03-31 23:09:00,
2013-03-31 18:15:00,69.4,39.0,29.96,NW,306,5.0,7.0,33,0.00,CLR,CLR,0.03,WeatherDisplay:10.37,2013-03-31 23:15:00,
2013-03-31 18:33:00,70.0,39.6,29.96,WNW,303,5.0,7.0,33,0.00,RA,RA,0.03,WeatherDisplay:10.37,2013-03-31 23:33:00,
2013-03-31 18:39:00,69.3,38.2,29.96,NW,321,1.0,7.0,32,0.00,RA,RA,0.03,WeatherDisplay:10.37,2013-03-31 23:39:00,
2013-03-31 18:45:00,69.8,38.6,29.96,North,4,5.0,7.0,32,0.00,CLR,CLR,0.03,WeatherDisplay:10.37,2013-03-31 23:45:00,
2013-03-31 18:51:00,68.7,39.2,29.96,NNE,16,3.0,6.0,34,0.00,CLR,CLR,0.03,WeatherDisplay:10.37,2013-03-31 23:51:00,
2013-03-31 18:57:00,67.9,37.7,29.96,North,4,3.0,7.0,33,0.00,CLR,CLR,0.03,WeatherDisplay:10.37,2013-03-31 23:57:00,
2013-03-31 19:03:00,67.9,37.7,29.96,NNW,330,1.0,4.0,33,0.00,CLR,CLR,0.03,WeatherDisplay:10.37,2013-04-01 00:03:00,
2013-03-31 19:09:00,68.2,38.0,29.96,North,349,3.0,4.0,33,0.00,CLR,CLR,0.03,WeatherDisplay:10.37,2013-04-01 00:09:00,
2013-03-31 19:15:00,67.1,37.8,29.96,NNW,335,3.0,6.0,34,0.00,CLR,CLR,0.03,WeatherDisplay:10.37,2013-04-01 00:15:00,
2013-03-31 19:21:00,66.9,37.6,29.96,NNE,20,0.0,0.0,34,0.00,CLR,CLR,0.03,WeatherDisplay:10.37,2013-04-01 00:21:00,
2013-03-31 19:27:00,66.3,37.1,29.96,NNE,17,0.0,0.0,34,0.00,CLR,CLR,0.03,WeatherDisplay:10.37,2013-04-01 00:27:00,
2013-03-31 19:33:00,65.3,36.9,29.96,NNW,341,0.0,0.0,35,0.00,CLR,CLR,0.03,WeatherDisplay:10.37,2013-04-01 00:33:00,
2013-03-31 19:39:00,64.7,36.4,29.96,NNE,22,1.0,4.0,35,0.00,CLR,CLR,0.03,WeatherDisplay:10.37,2013-04-01 00:39:00,
2013-03-31 19:45:00,63.9,35.7,29.96,ENE,63,0.0,2.0,35,0.00,CLR,CLR,0.03,WeatherDisplay:10.37,2013-04-01 00:45:00,
2013-03-31 19:51:00,62.9,35.5,29.97,ENE,68,2.0,3.0,36,0.00,CLR,CLR,0.03,WeatherDisplay:10.37,2013-04-01 00:51:00,
2013-03-31 19:57:00,61.8,35.9,29.97,NE,56,0.0,2.0,38,0.00,CLR,CLR,0.03,WeatherDisplay:10.37,2013-04-01 00:57:00,
2013-03-31 20:03:00,61.4,36.2,29.98,ENE,58,0.0,0.0,39,0.00,CLR,CLR,0.03,WeatherDisplay:10.37,2013-04-01 01:03:00,
2013-03-31 20:09:00,60.3,35.8,29.98,ENE,63,0.0,0.0,40,0.00,CLR,CLR,0.03,WeatherDisplay:10.37,2013-04-01 01:09:00,
2013-03-31 20:15:00,59.8,36.0,29.98,NE,41,0.0,0.0,41,0.00,CLR,CLR,0.03,WeatherDisplay:10.37,2013-04-01 01:15:00,
2013-03-31 20:21:00,59.1,36.1,29.98,NNE,25,0.0,0.0,42,0.00,CLR,CLR,0.03,WeatherDisplay:10.37,2013-04-01 01:21:00,
2013-03-31 20:27:00,58.3,36.4,29.98,NNE,22,0.0,0.0,44,0.00,CLR,CLR,0.03,WeatherDisplay:10.37,2013-04-01 01:27:00,
2013-03-31 20:33:00,57.6,36.4,29.98,NNE,22,0.0,0.0,45,0.00,CLR,CLR,0.03,WeatherDisplay:10.37,2013-04-01 01:33:00,
2013-03-31 20:39:00,56.8,36.8,29.99,NNE,22,0.0,0.0,47,0.00,CLR,CLR,0.03,WeatherDisplay:10.37,2013-04-01 01:39:00,
2013-03-31 20:45:00,56.3,36.8,29.99,NNE,22,0.0,0.0,48,0.00,CLR,CLR,0.03,WeatherDisplay:10.37,2013-04-01 01:45:00,
2013-03-31 20:51:00,55.5,36.6,29.99,NNE,22,0.0,0.0,49,0.00,CLR,CLR,0.03,WeatherDisplay:10.37,2013-04-01 01:51:00,
2013-03-31 20:57:00,54.9,36.6,29.99,NNE,22,0.0,0.0,50,0.00,CLR,CLR,0.03,WeatherDisplay:10.37,2013-04-01 01:57:00,
2013-03-31 21:03:00,54.0,37.2,29.99,NNE,22,0.0,0.0,53,0.00,CLR,CLR,0.03,WeatherDisplay:10.37,2013-04-01 02:03:00,
2013-03-31 21:09:00,53.5,37.7,29.99,NNE,22,0.0,0.0,55,0.00,CLR,CLR,0.03,WeatherDisplay:10.37,2013-04-01 02:09:00,
2013-03-31 21:15:00,53.1,38.7,30.00,NNE,22,0.0,0.0,58,0.00,CLR,CLR,0.03,WeatherDisplay:10.37,2013-04-01 02:15:00,
2013-03-31 21:21:00,52.5,39.0,30.00,NNE,22,0.0,0.0,60,0.00,CLR,CLR,0.03,WeatherDisplay:10.37,2013-04-01 02:21:00,
2013-03-31 21:27:00,52.2,39.5,30.00,NNE,22,0.0,0.0,62,0.00,CLR,CLR,0.03,WeatherDisplay:10.37,2013-04-01 02:27:00,
2013-03-31 21:33:00,52.0,39.3,30.00,NNE,22,0.0,0.0,62,0.00,CLR,CLR,0.03,WeatherDisplay:10.37,2013-04-01 02:33:00,
2013-03-31 21:39:00,51.9,38.4,30.00,NNE,22,0.0,0.0,60,0.00,CLR,CLR,0.03,WeatherDisplay:10.37,2013-04-01 02:39:00,
2013-03-31 21:45:00,51.6,37.8,30.00,NNE,22,0.0,0.0,59,0.00,CLR,CLR,0.03,WeatherDisplay:10.37,2013-04-01 02:45:00,
2013-03-31 21:51:00,51.5,38.9,30.00,NNE,22,0.0,0.0,62,0.00,CLR,CLR,0.03,WeatherDisplay:10.37,2013-04-01 02:51:00,
2013-03-31 21:57:00,50.8,38.6,30.00,ENE,69,0.0,0.0,63,0.00,CLR,CLR,0.03,WeatherDisplay:10.37,2013-04-01 02:57:00,
2013-03-31 22:03:00,50.2,38.5,29.99,ESE,103,0.0,0.0,64,0.00,CLR,CLR,0.03,WeatherDisplay:10.37,2013-04-01 03:03:00,
2013-03-31 22:09:00,50.0,38.3,29.99,ESE,112,0.0,0.0,64,0.00,CLR,CLR,0.03,WeatherDisplay:10.37,2013-04-01 03:09:00,
2013-03-31 22:15:00,49.8,38.1,29.98,ESE,112,0.0,0.0,64,0.00,CLR,CLR,0.03,WeatherDisplay:10.37,2013-04-01 03:15:00,
2013-03-31 22:24:00,51.7,39.1,29.98,SSE,162,2.0,3.0,62,0.00,CLR,CLR,0.03,WeatherDisplay:10.37,2013-04-01 03:24:00,
2013-03-31 22:30:00,51.5,39.3,29.98,SSE,149,3.0,3.0,63,0.00,CLR,CLR,0.03,WeatherDisplay:10.37,2013-04-01 03:30:00,
2013-03-31 22:36:00,50.9,39.6,29.98,SSE,152,0.0,0.0,65,0.00,CLR,CLR,0.03,WeatherDisplay:10.37,2013-04-01 03:36:00,
2013-03-31 22:42:00,50.6,39.2,29.97,SE,136,0.0,2.0,65,0.00,CLR,CLR,0.03,WeatherDisplay:10.37,2013-04-01 03:42:00,
2013-03-31 22:48:00,50.4,39.1,29.97,SE,142,0.0,2.0,65,0.00,CLR,CLR,0.03,WeatherDisplay:10.37,2013-04-01 03:48:00,
2013-03-31 22:54:00,50.9,39.1,29.97,SSE,150,2.0,3.0,64,0.00,CLR,CLR,0.03,WeatherDisplay:10.37,2013-04-01 03:54:00,
2013-03-31 23:03:00,50.6,38.8,29.97,SSE,151,2.0,3.0,64,0.00,CLR,CLR,0.03,WeatherDisplay:10.37,2013-04-01 04:03:00,
2013-03-31 23:06:00,50.6,38.9,29.97,SSE,153,0.0,2.0,64,0.00,CLR,CLR,0.03,WeatherDisplay:10.37,2013-04-01 04:06:00,
2013-03-31 23:12:00,50.9,38.7,29.97,SSE,159,2.0,3.0,63,0.00,CLR,CLR,0.03,WeatherDisplay:10.37,2013-04-01 04:12:00,
2013-03-31 23:18:00,51.1,38.9,29.97,SSE,161,5.0,7.0,63,0.00,CLR,CLR,0.03,WeatherDisplay:10.37,2013-04-01 04:18:00,
2013-03-31 23:24:00,50.9,38.7,29.97,SSE,164,5.0,5.0,63,0.00,CLR,CLR,0.03,WeatherDisplay:10.37,2013-04-01 04:24:00,
2013-03-31 23:30:00,50.9,38.7,29.97,SSE,158,3.0,5.0,63,0.00,CLR,CLR,0.03,WeatherDisplay:10.37,2013-04-01 04:30:00,
2013-03-31 23:36:00,50.9,38.7,29.97,SSE,159,3.0,4.0,63,0.00,CLR,CLR,0.03,WeatherDisplay:10.37,2013-04-01 04:36:00,
2013-03-31 23:42:00,50.9,38.7,29.97,SSE,161,2.0,5.0,63,0.00,CLR,CLR,0.03,WeatherDisplay:10.37,2013-04-01 04:42:00,
2013-03-31 23:48:00,50.6,38.8,29.97,SSE,158,2.0,4.0,64,0.00,CLR,CLR,0.03,WeatherDisplay:10.37,2013-04-01 04:48:00,
2013-03-31 23:54:00,50.4,38.6,29.97,SSE,163,5.0,6.0,64,0.00,CLR,CLR,0.03,WeatherDisplay:10.37,2013-04-01 04:54:00,